sensor_id;sensor_type;location;lat;lon;timestamp;temperature;humidity
7530;DHT22;3806;52.270;10.544;2023-12-20T00:00:02;8.10;99.90
7530;DHT22;3806;52.270;10.544;2023-12-20T00:02:28;8.10;99.90
7530;DHT22;3806;52.270;10.544;2023-12-20T00:04:54;8.10;99.90
7530;DHT22;3806;52.270;10.544;2023-12-20T00:07:19;8.10;99.90
7530;DHT22;3806;52.270;10.544;2023-12-20T00:09:45;8.10;99.90
7530;DHT22;3806;52.270;10.544;2023-12-20T00:12:10;8.10;99.90
7530;DHT22;3806;52.270;10.544;2023-12-20T00:14:36;8.10;99.90
7530;DHT22;3806;52.270;10.544;2023-12-20T00:17:01;8.10;99.90
7530;DHT22;3806;52.270;10.544;2023-12-20T00:19:27;8.10;99.90
7530;DHT22;3806;52.270;10.544;2023-12-20T00:21:52;8.00;99.90
7530;DHT22;3806;52.270;10.544;2023-12-20T00:24:18;8.00;99.90
7530;DHT22;3806;52.270;10.544;2023-12-20T00:26:43;8.00;99.90
7530;DHT22;3806;52.270;10.544;2023-12-20T00:29:09;8.00;99.90
7530;DHT22;3806;52.270;10.544;2023-12-20T00:31:34;8.00;99.90
7530;DHT22;3806;52.270;10.544;2023-12-20T00:33:59;8.00;99.90
7530;DHT22;3806;52.270;10.544;2023-12-20T00:36:25;8.00;99.90
7530;DHT22;3806;52.270;10.544;2023-12-20T00:38:50;8.00;99.90
7530;DHT22;3806;52.270;10.544;2023-12-20T00:41:17;8.00;99.90
7530;DHT22;3806;52.270;10.544;2023-12-20T00:43:42;8.00;99.90
7530;DHT22;3806;52.270;10.544;2023-12-20T00:46:08;8.00;99.90
7530;DHT22;3806;52.270;10.544;2023-12-20T00:48:33;8.00;99.90
7530;DHT22;3806;52.270;10.544;2023-12-20T00:50:59;8.00;99.90
7530;DHT22;3806;52.270;10.544;2023-12-20T00:53:24;8.00;99.90
7530;DHT22;3806;52.270;10.544;2023-12-20T00:55:50;8.00;99.90
7530;DHT22;3806;52.270;10.544;2023-12-20T00:58:15;8.10;99.90
7530;DHT22;3806;52.270;10.544;2023-12-20T01:00:41;8.10;99.90
7530;DHT22;3806;52.270;10.544;2023-12-20T01:03:08;8.10;99.90
7530;DHT22;3806;52.270;10.544;2023-12-20T01:05:33;8.10;99.90
7530;DHT22;3806;52.270;10.544;2023-12-20T01:07:59;8.20;99.90
7530;DHT22;3806;52.270;10.544;2023-12-20T01:10:25;8.20;99.90
7530;DHT22;3806;52.270;10.544;2023-12-20T01:12:53;8.20;99.90
7530;DHT22;3806;52.270;10.544;2023-12-20T01:15:18;8.20;99.90
7530;DHT22;3806;52.270;10.544;2023-12-20T01:17:44;8.20;99.90
7530;DHT22;3806;52.270;10.544;2023-12-20T01:20:10;8.20;99.90
7530;DHT22;3806;52.270;10.544;2023-12-20T01:22:35;8.20;99.90
7530;DHT22;3806;52.270;10.544;2023-12-20T01:25:01;8.10;99.90
7530;DHT22;3806;52.270;10.544;2023-12-20T01:27:27;8.10;99.90
7530;DHT22;3806;52.270;10.544;2023-12-20T01:29:53;8.10;99.90
7530;DHT22;3806;52.270;10.544;2023-12-20T01:32:18;8.10;99.90
7530;DHT22;3806;52.270;10.544;2023-12-20T01:34:44;8.10;99.90
7530;DHT22;3806;52.270;10.544;2023-12-20T01:37:09;8.00;99.90
7530;DHT22;3806;52.270;10.544;2023-12-20T01:39:35;8.00;99.90
7530;DHT22;3806;52.270;10.544;2023-12-20T01:42:00;7.90;99.90
7530;DHT22;3806;52.270;10.544;2023-12-20T01:44:25;7.90;99.90
7530;DHT22;3806;52.270;10.544;2023-12-20T01:46:52;7.80;99.90
7530;DHT22;3806;52.270;10.544;2023-12-20T01:49:17;7.80;99.90
7530;DHT22;3806;52.270;10.544;2023-12-20T01:51:43;7.80;99.90
7530;DHT22;3806;52.270;10.544;2023-12-20T01:54:09;7.80;99.90
7530;DHT22;3806;52.270;10.544;2023-12-20T01:56:34;7.70;99.90
7530;DHT22;3806;52.270;10.544;2023-12-20T01:59:00;7.70;99.90
7530;DHT22;3806;52.270;10.544;2023-12-20T02:01:26;7.70;99.90
7530;DHT22;3806;52.270;10.544;2023-12-20T02:03:53;7.60;99.90
7530;DHT22;3806;52.270;10.544;2023-12-20T02:06:21;7.60;99.90
7530;DHT22;3806;52.270;10.544;2023-12-20T02:08:49;7.60;99.90
7530;DHT22;3806;52.270;10.544;2023-12-20T02:11:15;7.60;99.90
7530;DHT22;3806;52.270;10.544;2023-12-20T02:13:41;7.60;99.90
7530;DHT22;3806;52.270;10.544;2023-12-20T02:16:06;7.60;99.90
7530;DHT22;3806;52.270;10.544;2023-12-20T02:18:33;7.60;99.90
7530;DHT22;3806;52.270;10.544;2023-12-20T02:20:58;7.60;99.90
7530;DHT22;3806;52.270;10.544;2023-12-20T02:23:24;7.60;99.90
7530;DHT22;3806;52.270;10.544;2023-12-20T02:25:49;7.50;99.90
7530;DHT22;3806;52.270;10.544;2023-12-20T02:28:15;7.50;99.90
7530;DHT22;3806;52.270;10.544;2023-12-20T02:30:40;7.50;99.90
7530;DHT22;3806;52.270;10.544;2023-12-20T02:33:08;7.50;99.90
7530;DHT22;3806;52.270;10.544;2023-12-20T02:35:35;7.50;99.90
7530;DHT22;3806;52.270;10.544;2023-12-20T02:38:01;7.50;99.90
7530;DHT22;3806;52.270;10.544;2023-12-20T02:40:26;7.50;99.90
7530;DHT22;3806;52.270;10.544;2023-12-20T02:42:52;7.50;99.90
7530;DHT22;3806;52.270;10.544;2023-12-20T02:45:17;7.40;99.90
7530;DHT22;3806;52.270;10.544;2023-12-20T02:47:43;7.40;99.90
7530;DHT22;3806;52.270;10.544;2023-12-20T02:50:08;7.40;99.90
7530;DHT22;3806;52.270;10.544;2023-12-20T02:52:34;7.30;99.90
7530;DHT22;3806;52.270;10.544;2023-12-20T02:54:59;7.20;99.90
7530;DHT22;3806;52.270;10.544;2023-12-20T02:57:24;7.20;99.90
7530;DHT22;3806;52.270;10.544;2023-12-20T02:59:50;7.10;99.90
7530;DHT22;3806;52.270;10.544;2023-12-20T03:02:15;7.10;99.90
7530;DHT22;3806;52.270;10.544;2023-12-20T03:04:41;7.10;99.90
7530;DHT22;3806;52.270;10.544;2023-12-20T03:07:06;7.00;99.90
7530;DHT22;3806;52.270;10.544;2023-12-20T03:09:32;7.00;99.90
7530;DHT22;3806;52.270;10.544;2023-12-20T03:11:57;7.00;99.90
7530;DHT22;3806;52.270;10.544;2023-12-20T03:14:23;6.90;99.90
7530;DHT22;3806;52.270;10.544;2023-12-20T03:16:51;6.90;99.90
7530;DHT22;3806;52.270;10.544;2023-12-20T03:19:17;6.80;99.90
7530;DHT22;3806;52.270;10.544;2023-12-20T03:21:44;6.80;99.90
7530;DHT22;3806;52.270;10.544;2023-12-20T03:24:09;6.80;99.90
7530;DHT22;3806;52.270;10.544;2023-12-20T03:26:35;6.70;99.90
7530;DHT22;3806;52.270;10.544;2023-12-20T03:29:00;6.70;99.90
7530;DHT22;3806;52.270;10.544;2023-12-20T03:31:26;6.70;99.90
7530;DHT22;3806;52.270;10.544;2023-12-20T03:33:51;6.60;99.90
7530;DHT22;3806;52.270;10.544;2023-12-20T03:36:19;6.60;99.90
7530;DHT22;3806;52.270;10.544;2023-12-20T03:38:44;6.60;99.90
7530;DHT22;3806;52.270;10.544;2023-12-20T03:41:10;6.60;99.90
7530;DHT22;3806;52.270;10.544;2023-12-20T03:43:35;6.60;99.90
7530;DHT22;3806;52.270;10.544;2023-12-20T03:46:02;6.60;99.90
7530;DHT22;3806;52.270;10.544;2023-12-20T03:48:29;6.50;99.90
7530;DHT22;3806;52.270;10.544;2023-12-20T03:50:55;6.50;99.90
7530;DHT22;3806;52.270;10.544;2023-12-20T03:53:20;6.50;99.90
7530;DHT22;3806;52.270;10.544;2023-12-20T03:55:45;6.50;99.90
7530;DHT22;3806;52.270;10.544;2023-12-20T03:58:11;6.40;99.90
7530;DHT22;3806;52.270;10.544;2023-12-20T04:00:36;6.40;99.90
7530;DHT22;3806;52.270;10.544;2023-12-20T04:03:02;6.40;99.90
7530;DHT22;3806;52.270;10.544;2023-12-20T04:05:28;6.40;99.90
7530;DHT22;3806;52.270;10.544;2023-12-20T04:07:53;6.40;99.90
7530;DHT22;3806;52.270;10.544;2023-12-20T04:10:19;6.40;99.90
7530;DHT22;3806;52.270;10.544;2023-12-20T04:12:44;6.40;99.90
7530;DHT22;3806;52.270;10.544;2023-12-20T04:15:09;6.40;99.90
7530;DHT22;3806;52.270;10.544;2023-12-20T04:17:37;6.30;99.90
7530;DHT22;3806;52.270;10.544;2023-12-20T04:20:03;6.30;99.90
7530;DHT22;3806;52.270;10.544;2023-12-20T04:22:28;6.30;99.90
7530;DHT22;3806;52.270;10.544;2023-12-20T04:24:54;6.30;99.90
7530;DHT22;3806;52.270;10.544;2023-12-20T04:27:19;6.30;99.90
7530;DHT22;3806;52.270;10.544;2023-12-20T04:29:45;6.30;99.90
7530;DHT22;3806;52.270;10.544;2023-12-20T04:32:10;6.20;99.90
7530;DHT22;3806;52.270;10.544;2023-12-20T04:34:36;6.20;99.90
7530;DHT22;3806;52.270;10.544;2023-12-20T04:37:02;6.20;99.90
7530;DHT22;3806;52.270;10.544;2023-12-20T04:39:27;6.20;99.90
7530;DHT22;3806;52.270;10.544;2023-12-20T04:41:53;6.20;99.90
7530;DHT22;3806;52.270;10.544;2023-12-20T04:44:18;6.20;99.90
7530;DHT22;3806;52.270;10.544;2023-12-20T04:46:44;6.30;99.90
7530;DHT22;3806;52.270;10.544;2023-12-20T04:49:09;6.30;99.90
7530;DHT22;3806;52.270;10.544;2023-12-20T04:51:35;6.20;99.90
7530;DHT22;3806;52.270;10.544;2023-12-20T04:54:01;6.20;99.90
7530;DHT22;3806;52.270;10.544;2023-12-20T04:56:27;6.30;99.90
7530;DHT22;3806;52.270;10.544;2023-12-20T04:58:52;6.30;99.90
7530;DHT22;3806;52.270;10.544;2023-12-20T05:01:18;6.40;99.90
7530;DHT22;3806;52.270;10.544;2023-12-20T05:03:43;6.40;99.90
7530;DHT22;3806;52.270;10.544;2023-12-20T05:06:09;6.40;99.90
7530;DHT22;3806;52.270;10.544;2023-12-20T05:08:35;6.40;99.90
7530;DHT22;3806;52.270;10.544;2023-12-20T05:11:01;6.50;99.90
7530;DHT22;3806;52.270;10.544;2023-12-20T05:13:26;6.50;99.90
7530;DHT22;3806;52.270;10.544;2023-12-20T05:15:52;6.50;99.90
7530;DHT22;3806;52.270;10.544;2023-12-20T05:18:17;6.60;99.90
7530;DHT22;3806;52.270;10.544;2023-12-20T05:20:43;6.60;99.90
7530;DHT22;3806;52.270;10.544;2023-12-20T05:23:08;6.60;99.90
7530;DHT22;3806;52.270;10.544;2023-12-20T05:25:34;6.60;99.90
7530;DHT22;3806;52.270;10.544;2023-12-20T05:27:59;6.60;99.90
7530;DHT22;3806;52.270;10.544;2023-12-20T05:30:25;6.70;99.90
7530;DHT22;3806;52.270;10.544;2023-12-20T05:32:50;6.70;99.90
7530;DHT22;3806;52.270;10.544;2023-12-20T05:35:16;6.80;99.90
7530;DHT22;3806;52.270;10.544;2023-12-20T05:37:42;6.80;99.90
7530;DHT22;3806;52.270;10.544;2023-12-20T05:40:08;6.80;99.90
7530;DHT22;3806;52.270;10.544;2023-12-20T05:42:36;6.90;99.90
7530;DHT22;3806;52.270;10.544;2023-12-20T05:45:01;6.90;99.90
7530;DHT22;3806;52.270;10.544;2023-12-20T05:47:27;6.90;99.90
7530;DHT22;3806;52.270;10.544;2023-12-20T05:49:52;6.90;99.90
7530;DHT22;3806;52.270;10.544;2023-12-20T05:52:18;6.90;99.90
7530;DHT22;3806;52.270;10.544;2023-12-20T05:54:43;7.00;99.90
7530;DHT22;3806;52.270;10.544;2023-12-20T05:57:09;6.90;99.90
7530;DHT22;3806;52.270;10.544;2023-12-20T05:59:34;7.00;99.90
7530;DHT22;3806;52.270;10.544;2023-12-20T06:02:00;7.00;99.90
7530;DHT22;3806;52.270;10.544;2023-12-20T06:04:25;7.00;99.90
7530;DHT22;3806;52.270;10.544;2023-12-20T06:06:51;7.00;99.90
7530;DHT22;3806;52.270;10.544;2023-12-20T06:09:16;7.00;99.90
7530;DHT22;3806;52.270;10.544;2023-12-20T06:11:42;7.10;99.90
7530;DHT22;3806;52.270;10.544;2023-12-20T06:14:08;7.10;99.90
7530;DHT22;3806;52.270;10.544;2023-12-20T06:16:33;7.20;99.90
7530;DHT22;3806;52.270;10.544;2023-12-20T06:18:59;7.20;99.90
7530;DHT22;3806;52.270;10.544;2023-12-20T06:21:24;7.20;99.90
7530;DHT22;3806;52.270;10.544;2023-12-20T06:23:50;7.20;99.90
7530;DHT22;3806;52.270;10.544;2023-12-20T06:26:15;7.20;99.90
7530;DHT22;3806;52.270;10.544;2023-12-20T06:28:41;7.20;99.90
7530;DHT22;3806;52.270;10.544;2023-12-20T06:31:06;7.20;99.90
7530;DHT22;3806;52.270;10.544;2023-12-20T06:33:32;7.20;99.90
7530;DHT22;3806;52.270;10.544;2023-12-20T06:35:57;7.20;99.90
7530;DHT22;3806;52.270;10.544;2023-12-20T06:38:23;7.20;99.90
7530;DHT22;3806;52.270;10.544;2023-12-20T06:40:48;7.20;99.90
7530;DHT22;3806;52.270;10.544;2023-12-20T06:43:14;7.20;99.90
7530;DHT22;3806;52.270;10.544;2023-12-20T06:45:40;7.30;99.90
7530;DHT22;3806;52.270;10.544;2023-12-20T06:48:06;7.20;99.90
7530;DHT22;3806;52.270;10.544;2023-12-20T06:50:31;7.30;99.90
7530;DHT22;3806;52.270;10.544;2023-12-20T06:52:57;7.30;99.90
7530;DHT22;3806;52.270;10.544;2023-12-20T06:55:22;7.30;99.90
7530;DHT22;3806;52.270;10.544;2023-12-20T06:57:48;7.30;99.90
7530;DHT22;3806;52.270;10.544;2023-12-20T07:00:14;7.20;99.90
7530;DHT22;3806;52.270;10.544;2023-12-20T07:02:40;7.30;99.90
7530;DHT22;3806;52.270;10.544;2023-12-20T07:05:06;7.30;99.90
7530;DHT22;3806;52.270;10.544;2023-12-20T07:07:31;7.30;99.90
7530;DHT22;3806;52.270;10.544;2023-12-20T07:09:57;7.30;99.90
7530;DHT22;3806;52.270;10.544;2023-12-20T07:12:22;7.30;99.90
7530;DHT22;3806;52.270;10.544;2023-12-20T07:14:48;7.30;99.90
7530;DHT22;3806;52.270;10.544;2023-12-20T07:17:13;7.20;99.90
7530;DHT22;3806;52.270;10.544;2023-12-20T07:19:41;7.30;99.90
7530;DHT22;3806;52.270;10.544;2023-12-20T07:22:06;7.30;99.90
7530;DHT22;3806;52.270;10.544;2023-12-20T07:24:32;7.30;99.90
7530;DHT22;3806;52.270;10.544;2023-12-20T07:27:00;7.30;99.90
7530;DHT22;3806;52.270;10.544;2023-12-20T07:29:25;7.30;99.90
7530;DHT22;3806;52.270;10.544;2023-12-20T07:31:52;7.20;99.90
7530;DHT22;3806;52.270;10.544;2023-12-20T07:34:19;7.30;99.90
7530;DHT22;3806;52.270;10.544;2023-12-20T07:36:45;7.30;99.90
7530;DHT22;3806;52.270;10.544;2023-12-20T07:39:10;7.30;99.90
7530;DHT22;3806;52.270;10.544;2023-12-20T07:41:35;7.30;99.90
7530;DHT22;3806;52.270;10.544;2023-12-20T07:44:01;7.30;99.90
7530;DHT22;3806;52.270;10.544;2023-12-20T07:46:26;7.40;99.90
7530;DHT22;3806;52.270;10.544;2023-12-20T07:48:52;7.40;99.90
7530;DHT22;3806;52.270;10.544;2023-12-20T07:51:17;7.40;99.90
7530;DHT22;3806;52.270;10.544;2023-12-20T07:53:43;7.40;99.90
7530;DHT22;3806;52.270;10.544;2023-12-20T07:56:18;7.40;99.90
7530;DHT22;3806;52.270;10.544;2023-12-20T07:58:44;7.50;99.90
7530;DHT22;3806;52.270;10.544;2023-12-20T08:01:11;7.50;99.90
7530;DHT22;3806;52.270;10.544;2023-12-20T08:03:37;7.50;99.90
7530;DHT22;3806;52.270;10.544;2023-12-20T08:06:03;7.50;99.90
7530;DHT22;3806;52.270;10.544;2023-12-20T08:08:28;7.50;99.90
7530;DHT22;3806;52.270;10.544;2023-12-20T08:10:54;7.50;99.90
7530;DHT22;3806;52.270;10.544;2023-12-20T08:13:20;7.50;99.90
7530;DHT22;3806;52.270;10.544;2023-12-20T08:15:50;7.60;99.90
7530;DHT22;3806;52.270;10.544;2023-12-20T08:18:15;7.70;99.90
7530;DHT22;3806;52.270;10.544;2023-12-20T08:20:41;7.90;99.90
7530;DHT22;3806;52.270;10.544;2023-12-20T08:23:06;8.10;99.90
7530;DHT22;3806;52.270;10.544;2023-12-20T08:25:32;8.10;99.90
7530;DHT22;3806;52.270;10.544;2023-12-20T08:27:57;8.10;99.90
7530;DHT22;3806;52.270;10.544;2023-12-20T08:30:23;8.10;99.90
7530;DHT22;3806;52.270;10.544;2023-12-20T08:32:49;8.00;99.90
7530;DHT22;3806;52.270;10.544;2023-12-20T08:35:14;7.90;99.90
7530;DHT22;3806;52.270;10.544;2023-12-20T08:37:40;7.80;99.90
7530;DHT22;3806;52.270;10.544;2023-12-20T08:40:06;7.80;99.90
7530;DHT22;3806;52.270;10.544;2023-12-20T08:42:31;7.80;99.90
7530;DHT22;3806;52.270;10.544;2023-12-20T08:45:00;7.80;99.90
7530;DHT22;3806;52.270;10.544;2023-12-20T08:47:25;7.80;99.90
7530;DHT22;3806;52.270;10.544;2023-12-20T08:49:51;7.80;99.90
7530;DHT22;3806;52.270;10.544;2023-12-20T08:52:24;7.80;99.90
7530;DHT22;3806;52.270;10.544;2023-12-20T08:54:53;7.80;99.90
7530;DHT22;3806;52.270;10.544;2023-12-20T08:57:22;7.90;99.90
7530;DHT22;3806;52.270;10.544;2023-12-20T08:59:49;7.90;99.90
7530;DHT22;3806;52.270;10.544;2023-12-20T09:02:16;7.90;99.90
7530;DHT22;3806;52.270;10.544;2023-12-20T09:04:42;7.90;99.90
7530;DHT22;3806;52.270;10.544;2023-12-20T09:07:27;7.80;99.90
7530;DHT22;3806;52.270;10.544;2023-12-20T09:09:55;7.80;99.90
7530;DHT22;3806;52.270;10.544;2023-12-20T09:12:20;7.90;99.90
7530;DHT22;3806;52.270;10.544;2023-12-20T09:14:47;7.90;99.90
7530;DHT22;3806;52.270;10.544;2023-12-20T09:17:13;7.90;99.90
7530;DHT22;3806;52.270;10.544;2023-12-20T09:19:38;7.90;99.90
7530;DHT22;3806;52.270;10.544;2023-12-20T09:22:05;8.00;99.90
7530;DHT22;3806;52.270;10.544;2023-12-20T09:24:32;8.00;99.90
7530;DHT22;3806;52.270;10.544;2023-12-20T09:27:07;8.00;99.90
7530;DHT22;3806;52.270;10.544;2023-12-20T09:29:33;8.20;99.90
7530;DHT22;3806;52.270;10.544;2023-12-20T09:31:58;8.30;99.90
7530;DHT22;3806;52.270;10.544;2023-12-20T09:34:25;8.30;99.90
7530;DHT22;3806;52.270;10.544;2023-12-20T09:36:51;8.40;99.90
7530;DHT22;3806;52.270;10.544;2023-12-20T09:39:18;8.40;99.90
7530;DHT22;3806;52.270;10.544;2023-12-20T09:42:06;8.40;99.90
7530;DHT22;3806;52.270;10.544;2023-12-20T09:44:33;8.50;99.90
7530;DHT22;3806;52.270;10.544;2023-12-20T09:47:02;8.50;99.90
7530;DHT22;3806;52.270;10.544;2023-12-20T09:49:29;8.50;99.90
7530;DHT22;3806;52.270;10.544;2023-12-20T09:51:56;8.40;99.90
7530;DHT22;3806;52.270;10.544;2023-12-20T09:54:22;8.40;99.90
7530;DHT22;3806;52.270;10.544;2023-12-20T09:56:48;8.40;99.90
7530;DHT22;3806;52.270;10.544;2023-12-20T09:59:14;8.30;99.90
7530;DHT22;3806;52.270;10.544;2023-12-20T10:01:41;8.20;99.90
7530;DHT22;3806;52.270;10.544;2023-12-20T10:04:08;8.20;99.90
7530;DHT22;3806;52.270;10.544;2023-12-20T10:06:43;8.20;99.90
7530;DHT22;3806;52.270;10.544;2023-12-20T10:09:10;8.10;99.90
7530;DHT22;3806;52.270;10.544;2023-12-20T10:11:37;8.10;99.90
7530;DHT22;3806;52.270;10.544;2023-12-20T10:14:03;8.10;99.90
7530;DHT22;3806;52.270;10.544;2023-12-20T10:16:28;8.10;99.90
7530;DHT22;3806;52.270;10.544;2023-12-20T10:18:54;8.20;99.90
7530;DHT22;3806;52.270;10.544;2023-12-20T10:21:21;8.20;99.90
7530;DHT22;3806;52.270;10.544;2023-12-20T10:23:47;8.20;99.90
7530;DHT22;3806;52.270;10.544;2023-12-20T10:26:24;8.20;99.90
7530;DHT22;3806;52.270;10.544;2023-12-20T10:28:54;8.20;99.90
7530;DHT22;3806;52.270;10.544;2023-12-20T10:31:27;8.20;99.90
7530;DHT22;3806;52.270;10.544;2023-12-20T10:33:53;8.30;99.90
7530;DHT22;3806;52.270;10.544;2023-12-20T10:36:19;8.30;99.90
7530;DHT22;3806;52.270;10.544;2023-12-20T10:38:44;8.40;99.90
7530;DHT22;3806;52.270;10.544;2023-12-20T10:41:12;8.40;99.90
7530;DHT22;3806;52.270;10.544;2023-12-20T10:43:40;8.40;99.90
7530;DHT22;3806;52.270;10.544;2023-12-20T10:46:06;8.50;99.90
7530;DHT22;3806;52.270;10.544;2023-12-20T10:48:32;8.50;99.90
7530;DHT22;3806;52.270;10.544;2023-12-20T10:50:58;8.40;99.90
7530;DHT22;3806;52.270;10.544;2023-12-20T10:53:24;8.40;99.90
7530;DHT22;3806;52.270;10.544;2023-12-20T10:55:52;8.40;99.90
7530;DHT22;3806;52.270;10.544;2023-12-20T10:58:21;8.40;99.90
7530;DHT22;3806;52.270;10.544;2023-12-20T11:00:49;8.40;99.90
7530;DHT22;3806;52.270;10.544;2023-12-20T11:03:17;8.40;99.90
7530;DHT22;3806;52.270;10.544;2023-12-20T11:05:52;8.50;99.90
7530;DHT22;3806;52.270;10.544;2023-12-20T11:08:28;8.40;99.90
7530;DHT22;3806;52.270;10.544;2023-12-20T11:13:31;8.40;99.90
7530;DHT22;3806;52.270;10.544;2023-12-20T11:15:58;8.40;99.90
7530;DHT22;3806;52.270;10.544;2023-12-20T11:18:31;8.40;99.90
7530;DHT22;3806;52.270;10.544;2023-12-20T11:21:01;8.40;99.90
7530;DHT22;3806;52.270;10.544;2023-12-20T11:23:27;8.40;99.90
7530;DHT22;3806;52.270;10.544;2023-12-20T11:25:56;8.40;99.90
7530;DHT22;3806;52.270;10.544;2023-12-20T11:28:24;8.40;99.90
7530;DHT22;3806;52.270;10.544;2023-12-20T11:30:54;8.50;99.90
7530;DHT22;3806;52.270;10.544;2023-12-20T11:33:45;8.40;99.90
7530;DHT22;3806;52.270;10.544;2023-12-20T11:36:14;8.40;99.90
7530;DHT22;3806;52.270;10.544;2023-12-20T11:38:55;8.40;99.90
7530;DHT22;3806;52.270;10.544;2023-12-20T11:41:22;8.40;99.90
7530;DHT22;3806;52.270;10.544;2023-12-20T11:43:53;8.40;99.90
7530;DHT22;3806;52.270;10.544;2023-12-20T11:46:18;8.40;99.90
7530;DHT22;3806;52.270;10.544;2023-12-20T11:48:44;8.40;99.90
7530;DHT22;3806;52.270;10.544;2023-12-20T11:51:11;8.50;99.90
7530;DHT22;3806;52.270;10.544;2023-12-20T11:53:38;8.50;99.90
7530;DHT22;3806;52.270;10.544;2023-12-20T11:56:07;8.40;99.90
7530;DHT22;3806;52.270;10.544;2023-12-20T11:58:33;8.40;99.90
7530;DHT22;3806;52.270;10.544;2023-12-20T12:00:59;8.40;99.90
7530;DHT22;3806;52.270;10.544;2023-12-20T12:03:25;8.40;99.90
7530;DHT22;3806;52.270;10.544;2023-12-20T12:05:51;8.40;99.90
7530;DHT22;3806;52.270;10.544;2023-12-20T12:08:19;8.40;99.90
7530;DHT22;3806;52.270;10.544;2023-12-20T12:10:45;8.50;99.90
7530;DHT22;3806;52.270;10.544;2023-12-20T12:13:11;8.50;99.90
7530;DHT22;3806;52.270;10.544;2023-12-20T12:15:37;8.40;99.90
7530;DHT22;3806;52.270;10.544;2023-12-20T12:18:03;8.40;99.90
7530;DHT22;3806;52.270;10.544;2023-12-20T12:20:29;8.30;99.90
7530;DHT22;3806;52.270;10.544;2023-12-20T12:23:02;8.30;99.90
7530;DHT22;3806;52.270;10.544;2023-12-20T12:25:32;8.20;99.90
7530;DHT22;3806;52.270;10.544;2023-12-20T12:27:58;8.20;99.90
7530;DHT22;3806;52.270;10.544;2023-12-20T12:30:24;8.10;99.90
7530;DHT22;3806;52.270;10.544;2023-12-20T12:32:53;8.10;99.90
7530;DHT22;3806;52.270;10.544;2023-12-20T12:35:21;8.00;99.90
7530;DHT22;3806;52.270;10.544;2023-12-20T12:37:46;8.00;99.90
7530;DHT22;3806;52.270;10.544;2023-12-20T12:40:14;8.00;99.90
7530;DHT22;3806;52.270;10.544;2023-12-20T12:42:40;8.00;99.90
7530;DHT22;3806;52.270;10.544;2023-12-20T12:45:06;8.00;99.90
7530;DHT22;3806;52.270;10.544;2023-12-20T12:47:33;8.00;99.90
7530;DHT22;3806;52.270;10.544;2023-12-20T12:49:59;8.00;99.90
7530;DHT22;3806;52.270;10.544;2023-12-20T12:52:24;8.00;99.90
7530;DHT22;3806;52.270;10.544;2023-12-20T12:54:52;8.00;99.90
7530;DHT22;3806;52.270;10.544;2023-12-20T12:57:17;8.00;99.90
7530;DHT22;3806;52.270;10.544;2023-12-20T12:59:43;7.90;99.90
7530;DHT22;3806;52.270;10.544;2023-12-20T13:02:11;7.80;99.90
7530;DHT22;3806;52.270;10.544;2023-12-20T13:04:36;7.80;99.90
7530;DHT22;3806;52.270;10.544;2023-12-20T13:07:02;7.70;99.90
7530;DHT22;3806;52.270;10.544;2023-12-20T13:09:28;7.70;99.90
7530;DHT22;3806;52.270;10.544;2023-12-20T13:11:53;7.70;99.90
7530;DHT22;3806;52.270;10.544;2023-12-20T13:14:18;7.70;99.90
7530;DHT22;3806;52.270;10.544;2023-12-20T13:16:44;7.70;99.90
7530;DHT22;3806;52.270;10.544;2023-12-20T13:19:11;7.60;99.90
7530;DHT22;3806;52.270;10.544;2023-12-20T13:21:36;7.60;99.90
7530;DHT22;3806;52.270;10.544;2023-12-20T13:24:02;7.70;99.90
7530;DHT22;3806;52.270;10.544;2023-12-20T13:26:28;7.70;99.90
7530;DHT22;3806;52.270;10.544;2023-12-20T13:28:54;7.70;99.90
7530;DHT22;3806;52.270;10.544;2023-12-20T13:31:20;7.60;99.90
7530;DHT22;3806;52.270;10.544;2023-12-20T13:33:45;7.60;99.90
7530;DHT22;3806;52.270;10.544;2023-12-20T13:36:11;7.50;99.90
7530;DHT22;3806;52.270;10.544;2023-12-20T13:38:37;7.50;99.90
7530;DHT22;3806;52.270;10.544;2023-12-20T13:41:02;7.50;99.90
7530;DHT22;3806;52.270;10.544;2023-12-20T13:43:29;7.40;99.90
7530;DHT22;3806;52.270;10.544;2023-12-20T13:45:55;7.40;99.90
7530;DHT22;3806;52.270;10.544;2023-12-20T13:48:22;7.30;99.90
7530;DHT22;3806;52.270;10.544;2023-12-20T13:50:49;7.30;99.90
7530;DHT22;3806;52.270;10.544;2023-12-20T13:53:15;7.30;99.90
7530;DHT22;3806;52.270;10.544;2023-12-20T13:55:41;7.30;99.90
7530;DHT22;3806;52.270;10.544;2023-12-20T13:58:06;7.30;99.90
7530;DHT22;3806;52.270;10.544;2023-12-20T14:00:32;7.30;99.90
7530;DHT22;3806;52.270;10.544;2023-12-20T14:02:57;7.30;99.90
7530;DHT22;3806;52.270;10.544;2023-12-20T14:05:24;7.30;99.90
7530;DHT22;3806;52.270;10.544;2023-12-20T14:07:49;7.30;99.90
7530;DHT22;3806;52.270;10.544;2023-12-20T14:10:15;7.30;99.90
7530;DHT22;3806;52.270;10.544;2023-12-20T14:12:41;7.30;99.90
7530;DHT22;3806;52.270;10.544;2023-12-20T14:15:07;7.30;99.90
7530;DHT22;3806;52.270;10.544;2023-12-20T14:17:37;7.30;99.90
7530;DHT22;3806;52.270;10.544;2023-12-20T14:20:02;7.30;99.90
7530;DHT22;3806;52.270;10.544;2023-12-20T14:22:28;7.30;99.90
7530;DHT22;3806;52.270;10.544;2023-12-20T14:24:54;7.30;99.90
7530;DHT22;3806;52.270;10.544;2023-12-20T14:27:20;7.30;99.90
7530;DHT22;3806;52.270;10.544;2023-12-20T14:29:48;7.30;99.90
7530;DHT22;3806;52.270;10.544;2023-12-20T14:32:14;7.30;99.90
7530;DHT22;3806;52.270;10.544;2023-12-20T14:34:40;7.30;99.90
7530;DHT22;3806;52.270;10.544;2023-12-20T14:37:06;7.30;99.90
7530;DHT22;3806;52.270;10.544;2023-12-20T14:39:31;7.20;99.90
7530;DHT22;3806;52.270;10.544;2023-12-20T14:41:57;7.20;99.90
7530;DHT22;3806;52.270;10.544;2023-12-20T14:44:22;7.20;99.90
7530;DHT22;3806;52.270;10.544;2023-12-20T14:46:48;7.20;99.90
7530;DHT22;3806;52.270;10.544;2023-12-20T14:49:13;7.20;99.90
7530;DHT22;3806;52.270;10.544;2023-12-20T14:51:39;7.30;99.90
7530;DHT22;3806;52.270;10.544;2023-12-20T14:54:05;7.30;99.90
7530;DHT22;3806;52.270;10.544;2023-12-20T14:56:35;7.30;99.90
7530;DHT22;3806;52.270;10.544;2023-12-20T14:59:01;7.30;99.90
7530;DHT22;3806;52.270;10.544;2023-12-20T15:01:26;7.30;99.90
7530;DHT22;3806;52.270;10.544;2023-12-20T15:03:51;7.30;99.90
7530;DHT22;3806;52.270;10.544;2023-12-20T15:06:18;7.40;99.90
7530;DHT22;3806;52.270;10.544;2023-12-20T15:08:45;7.40;99.90
7530;DHT22;3806;52.270;10.544;2023-12-20T15:11:11;7.40;99.90
7530;DHT22;3806;52.270;10.544;2023-12-20T15:13:37;7.40;99.90
7530;DHT22;3806;52.270;10.544;2023-12-20T15:16:03;7.40;99.90
7530;DHT22;3806;52.270;10.544;2023-12-20T15:18:30;7.40;99.90
7530;DHT22;3806;52.270;10.544;2023-12-20T15:20:57;7.40;99.90
7530;DHT22;3806;52.270;10.544;2023-12-20T15:23:22;7.40;99.90
7530;DHT22;3806;52.270;10.544;2023-12-20T15:25:51;7.40;99.90
7530;DHT22;3806;52.270;10.544;2023-12-20T15:28:17;7.40;99.90
7530;DHT22;3806;52.270;10.544;2023-12-20T15:30:42;7.40;99.90
7530;DHT22;3806;52.270;10.544;2023-12-20T15:33:08;7.40;99.90
7530;DHT22;3806;52.270;10.544;2023-12-20T15:35:33;7.40;99.90
7530;DHT22;3806;52.270;10.544;2023-12-20T15:37:59;7.50;99.90
7530;DHT22;3806;52.270;10.544;2023-12-20T15:40:24;7.40;99.90
7530;DHT22;3806;52.270;10.544;2023-12-20T15:42:50;7.40;99.90
7530;DHT22;3806;52.270;10.544;2023-12-20T15:45:16;7.40;99.90
7530;DHT22;3806;52.270;10.544;2023-12-20T15:47:41;7.50;99.90
7530;DHT22;3806;52.270;10.544;2023-12-20T15:50:07;7.50;99.90
7530;DHT22;3806;52.270;10.544;2023-12-20T15:52:33;7.50;99.90
7530;DHT22;3806;52.270;10.544;2023-12-20T15:54:58;7.50;99.90
7530;DHT22;3806;52.270;10.544;2023-12-20T15:57:24;7.50;99.90